sensor_id;sensor_type;location;lat;lon;timestamp;P1;durP1;ratioP1;P2;durP2;ratioP2
15218;SDS011;15623;53.986;11.676;2022-09-09T00:01:32;30.75;;;23.50;;
15218;SDS011;15623;53.986;11.676;2022-09-09T00:04:05;29.73;;;22.52;;
15218;SDS011;15623;53.986;11.676;2022-09-09T00:06:42;28.50;;;21.75;;
15218;SDS011;15623;53.986;11.676;2022-09-09T00:09:12;27.75;;;20.83;;
15218;SDS011;15623;53.986;11.676;2022-09-09T00:11:40;26.05;;;20.55;;
15218;SDS011;15623;53.986;11.676;2022-09-09T00:14:13;24.10;;;19.42;;
15218;SDS011;15623;53.986;11.676;2022-09-09T00:16:43;24.85;;;19.63;;
15218;SDS011;15623;53.986;11.676;2022-09-09T00:19:15;21.55;;;18.02;;
15218;SDS011;15623;53.986;11.676;2022-09-09T00:21:47;19.60;;;17.48;;
15218;SDS011;15623;53.986;11.676;2022-09-09T00:24:23;21.15;;;17.98;;
15218;SDS011;15623;53.986;11.676;2022-09-09T00:26:52;21.98;;;18.55;;
15218;SDS011;15623;53.986;11.676;2022-09-09T00:29:25;18.50;;;16.58;;
15218;SDS011;15623;53.986;11.676;2022-09-09T00:31:57;19.83;;;16.67;;
15218;SDS011;15623;53.986;11.676;2022-09-09T00:34:28;23.08;;;19.60;;
15218;SDS011;15623;53.986;11.676;2022-09-09T00:36:56;21.15;;;18.05;;
15218;SDS011;15623;53.986;11.676;2022-09-09T00:39:27;23.98;;;18.63;;
15218;SDS011;15623;53.986;11.676;2022-09-09T00:42:06;25.13;;;19.88;;
15218;SDS011;15623;53.986;11.676;2022-09-09T00:44:45;24.65;;;20.23;;
15218;SDS011;15623;53.986;11.676;2022-09-09T00:47:20;24.73;;;19.70;;
15218;SDS011;15623;53.986;11.676;2022-09-09T00:49:56;28.02;;;21.50;;
15218;SDS011;15623;53.986;11.676;2022-09-09T00:52:27;23.00;;;18.65;;
15218;SDS011;15623;53.986;11.676;2022-09-09T00:55:00;29.45;;;22.25;;
15218;SDS011;15623;53.986;11.676;2022-09-09T00:57:30;25.35;;;20.58;;
15218;SDS011;15623;53.986;11.676;2022-09-09T01:00:00;28.65;;;21.40;;
15218;SDS011;15623;53.986;11.676;2022-09-09T01:02:32;22.75;;;19.88;;
15218;SDS011;15623;53.986;11.676;2022-09-09T01:05:05;28.00;;;20.98;;
15218;SDS011;15623;53.986;11.676;2022-09-09T01:07:33;27.75;;;21.65;;
15218;SDS011;15623;53.986;11.676;2022-09-09T01:10:03;22.40;;;19.63;;
15218;SDS011;15623;53.986;11.676;2022-09-09T01:15:12;25.13;;;20.25;;
15218;SDS011;15623;53.986;11.676;2022-09-09T01:17:48;23.63;;;19.33;;
15218;SDS011;15623;53.986;11.676;2022-09-09T01:20:18;25.50;;;20.95;;
15218;SDS011;15623;53.986;11.676;2022-09-09T01:22:50;26.40;;;22.02;;
15218;SDS011;15623;53.986;11.676;2022-09-09T01:25:22;27.98;;;23.60;;
15218;SDS011;15623;53.986;11.676;2022-09-09T01:27:54;25.17;;;22.33;;
15218;SDS011;15623;53.986;11.676;2022-09-09T01:30:23;34.00;;;25.40;;
15218;SDS011;15623;53.986;11.676;2022-09-09T01:32:53;32.67;;;24.33;;
15218;SDS011;15623;53.986;11.676;2022-09-09T01:35:27;30.70;;;24.13;;
15218;SDS011;15623;53.986;11.676;2022-09-09T01:37:57;34.75;;;25.42;;
15218;SDS011;15623;53.986;11.676;2022-09-09T01:40:24;33.78;;;26.50;;
15218;SDS011;15623;53.986;11.676;2022-09-09T01:42:53;32.45;;;24.90;;
15218;SDS011;15623;53.986;11.676;2022-09-09T01:45:22;38.28;;;26.70;;
15218;SDS011;15623;53.986;11.676;2022-09-09T01:47:51;33.40;;;26.60;;
15218;SDS011;15623;53.986;11.676;2022-09-09T01:50:19;38.00;;;28.13;;
15218;SDS011;15623;53.986;11.676;2022-09-09T01:52:48;38.55;;;29.05;;
15218;SDS011;15623;53.986;11.676;2022-09-09T01:55:17;38.72;;;27.73;;
15218;SDS011;15623;53.986;11.676;2022-09-09T01:57:48;42.05;;;28.30;;
15218;SDS011;15623;53.986;11.676;2022-09-09T02:00:17;36.30;;;26.73;;
15218;SDS011;15623;53.986;11.676;2022-09-09T02:02:48;38.42;;;26.92;;
15218;SDS011;15623;53.986;11.676;2022-09-09T02:05:22;39.80;;;28.05;;
15218;SDS011;15623;53.986;11.676;2022-09-09T02:07:56;38.20;;;26.48;;
15218;SDS011;15623;53.986;11.676;2022-09-09T02:10:28;36.90;;;25.83;;
15218;SDS011;15623;53.986;11.676;2022-09-09T02:13:00;43.67;;;28.38;;
15218;SDS011;15623;53.986;11.676;2022-09-09T02:15:30;45.95;;;28.38;;
15218;SDS011;15623;53.986;11.676;2022-09-09T02:18:01;39.30;;;27.25;;
15218;SDS011;15623;53.986;11.676;2022-09-09T02:20:33;45.67;;;27.95;;
15218;SDS011;15623;53.986;11.676;2022-09-09T02:23:01;40.08;;;26.83;;
15218;SDS011;15623;53.986;11.676;2022-09-09T02:25:29;36.63;;;25.80;;
15218;SDS011;15623;53.986;11.676;2022-09-09T02:27:57;43.17;;;25.83;;
15218;SDS011;15623;53.986;11.676;2022-09-09T02:30:24;43.55;;;29.10;;
15218;SDS011;15623;53.986;11.676;2022-09-09T02:32:52;38.50;;;24.75;;
15218;SDS011;15623;53.986;11.676;2022-09-09T02:35:25;39.85;;;26.55;;
15218;SDS011;15623;53.986;11.676;2022-09-09T02:37:53;36.95;;;25.50;;
15218;SDS011;15623;53.986;11.676;2022-09-09T02:40:22;37.80;;;25.40;;
15218;SDS011;15623;53.986;11.676;2022-09-09T02:42:50;36.35;;;24.60;;
15218;SDS011;15623;53.986;11.676;2022-09-09T02:45:18;33.90;;;23.85;;
15218;SDS011;15623;53.986;11.676;2022-09-09T02:47:48;43.92;;;26.20;;
15218;SDS011;15623;53.986;11.676;2022-09-09T02:50:17;43.63;;;26.40;;
15218;SDS011;15623;53.986;11.676;2022-09-09T02:52:59;43.53;;;27.52;;
15218;SDS011;15623;53.986;11.676;2022-09-09T02:55:29;46.80;;;27.70;;
15218;SDS011;15623;53.986;11.676;2022-09-09T02:58:01;42.97;;;26.88;;
15218;SDS011;15623;53.986;11.676;2022-09-09T03:00:31;48.05;;;28.08;;
15218;SDS011;15623;53.986;11.676;2022-09-09T03:03:01;48.78;;;28.33;;
15218;SDS011;15623;53.986;11.676;2022-09-09T03:05:28;44.92;;;27.75;;
15218;SDS011;15623;53.986;11.676;2022-09-09T03:07:58;45.00;;;27.75;;
15218;SDS011;15623;53.986;11.676;2022-09-09T03:10:26;48.03;;;28.08;;
15218;SDS011;15623;53.986;11.676;2022-09-09T03:12:53;55.63;;;31.33;;
15218;SDS011;15623;53.986;11.676;2022-09-09T03:15:21;58.03;;;29.83;;
15218;SDS011;15623;53.986;11.676;2022-09-09T03:17:49;53.75;;;31.05;;
15218;SDS011;15623;53.986;11.676;2022-09-09T03:20:16;47.45;;;28.73;;
15218;SDS011;15623;53.986;11.676;2022-09-09T03:22:44;44.17;;;26.75;;
15218;SDS011;15623;53.986;11.676;2022-09-09T03:25:14;47.40;;;28.75;;
15218;SDS011;15623;53.986;11.676;2022-09-09T03:27:41;46.08;;;27.80;;
15218;SDS011;15623;53.986;11.676;2022-09-09T03:30:09;38.90;;;25.50;;
15218;SDS011;15623;53.986;11.676;2022-09-09T03:32:36;44.53;;;26.83;;
15218;SDS011;15623;53.986;11.676;2022-09-09T03:35:05;44.00;;;27.50;;
15218;SDS011;15623;53.986;11.676;2022-09-09T03:37:33;41.85;;;27.42;;
15218;SDS011;15623;53.986;11.676;2022-09-09T03:40:00;42.97;;;26.95;;
15218;SDS011;15623;53.986;11.676;2022-09-09T03:42:29;42.30;;;27.23;;
15218;SDS011;15623;53.986;11.676;2022-09-09T03:44:57;40.88;;;26.33;;
15218;SDS011;15623;53.986;11.676;2022-09-09T03:47:24;43.05;;;27.65;;
15218;SDS011;15623;53.986;11.676;2022-09-09T03:49:51;45.92;;;28.08;;
15218;SDS011;15623;53.986;11.676;2022-09-09T03:52:19;44.25;;;28.05;;
15218;SDS011;15623;53.986;11.676;2022-09-09T03:54:50;49.85;;;29.48;;
15218;SDS011;15623;53.986;11.676;2022-09-09T03:57:17;47.97;;;27.73;;
15218;SDS011;15623;53.986;11.676;2022-09-09T03:59:46;52.28;;;28.55;;
15218;SDS011;15623;53.986;11.676;2022-09-09T04:02:13;47.95;;;29.40;;
15218;SDS011;15623;53.986;11.676;2022-09-09T04:04:41;47.47;;;29.48;;
15218;SDS011;15623;53.986;11.676;2022-09-09T04:07:08;53.92;;;30.70;;
15218;SDS011;15623;53.986;11.676;2022-09-09T04:09:36;50.55;;;30.05;;
15218;SDS011;15623;53.986;11.676;2022-09-09T04:12:04;52.08;;;29.45;;
15218;SDS011;15623;53.986;11.676;2022-09-09T04:14:32;66.70;;;32.17;;
15218;SDS011;15623;53.986;11.676;2022-09-09T04:17:01;65.85;;;31.27;;
15218;SDS011;15623;53.986;11.676;2022-09-09T04:19:31;69.75;;;31.88;;
15218;SDS011;15623;53.986;11.676;2022-09-09T04:22:00;79.68;;;32.55;;
15218;SDS011;15623;53.986;11.676;2022-09-09T04:24:27;80.78;;;32.33;;
15218;SDS011;15623;53.986;11.676;2022-09-09T04:26:56;91.05;;;34.88;;
15218;SDS011;15623;53.986;11.676;2022-09-09T04:29:27;100.50;;;35.38;;
15218;SDS011;15623;53.986;11.676;2022-09-09T04:31:54;123.93;;;38.03;;
15218;SDS011;15623;53.986;11.676;2022-09-09T04:34:23;130.63;;;37.33;;
15218;SDS011;15623;53.986;11.676;2022-09-09T04:36:51;84.63;;;32.15;;
15218;SDS011;15623;53.986;11.676;2022-09-09T04:39:18;102.53;;;35.72;;
15218;SDS011;15623;53.986;11.676;2022-09-09T04:41:46;101.40;;;34.03;;
15218;SDS011;15623;53.986;11.676;2022-09-09T04:44:13;87.38;;;32.65;;
15218;SDS011;15623;53.986;11.676;2022-09-09T04:46:40;78.72;;;31.83;;
15218;SDS011;15623;53.986;11.676;2022-09-09T04:49:08;101.40;;;31.52;;
15218;SDS011;15623;53.986;11.676;2022-09-09T04:51:37;98.28;;;31.45;;
15218;SDS011;15623;53.986;11.676;2022-09-09T04:54:04;91.72;;;32.15;;
15218;SDS011;15623;53.986;11.676;2022-09-09T04:56:32;64.25;;;27.92;;
15218;SDS011;15623;53.986;11.676;2022-09-09T04:58:59;79.40;;;29.27;;
15218;SDS011;15623;53.986;11.676;2022-09-09T05:01:36;73.88;;;29.67;;
15218;SDS011;15623;53.986;11.676;2022-09-09T05:04:03;64.00;;;28.77;;
15218;SDS011;15623;53.986;11.676;2022-09-09T05:06:31;67.10;;;27.58;;
15218;SDS011;15623;53.986;11.676;2022-09-09T05:09:00;63.35;;;27.88;;
15218;SDS011;15623;53.986;11.676;2022-09-09T05:11:28;63.58;;;26.75;;
15218;SDS011;15623;53.986;11.676;2022-09-09T05:13:57;62.15;;;26.75;;
15218;SDS011;15623;53.986;11.676;2022-09-09T05:16:25;52.55;;;24.77;;
15218;SDS011;15623;53.986;11.676;2022-09-09T05:18:54;58.67;;;25.35;;
15218;SDS011;15623;53.986;11.676;2022-09-09T05:21:22;54.28;;;24.15;;
15218;SDS011;15623;53.986;11.676;2022-09-09T05:23:51;50.65;;;24.33;;
15218;SDS011;15623;53.986;11.676;2022-09-09T05:26:20;57.97;;;25.60;;
15218;SDS011;15623;53.986;11.676;2022-09-09T05:28:48;65.00;;;26.92;;
15218;SDS011;15623;53.986;11.676;2022-09-09T05:31:16;60.63;;;26.75;;
15218;SDS011;15623;53.986;11.676;2022-09-09T05:33:44;58.22;;;26.13;;
15218;SDS011;15623;53.986;11.676;2022-09-09T05:36:13;58.33;;;29.35;;
15218;SDS011;15623;53.986;11.676;2022-09-09T05:38:41;61.63;;;30.50;;
15218;SDS011;15623;53.986;11.676;2022-09-09T05:41:09;54.67;;;29.23;;
15218;SDS011;15623;53.986;11.676;2022-09-09T05:43:42;65.57;;;30.30;;
15218;SDS011;15623;53.986;11.676;2022-09-09T05:46:10;65.10;;;31.88;;
15218;SDS011;15623;53.986;11.676;2022-09-09T05:48:38;60.85;;;31.00;;
15218;SDS011;15623;53.986;11.676;2022-09-09T05:51:06;61.33;;;32.67;;
15218;SDS011;15623;53.986;11.676;2022-09-09T05:53:35;68.95;;;36.72;;
15218;SDS011;15623;53.986;11.676;2022-09-09T05:56:04;67.57;;;39.58;;
15218;SDS011;15623;53.986;11.676;2022-09-09T05:58:31;63.90;;;39.88;;
15218;SDS011;15623;53.986;11.676;2022-09-09T06:01:07;63.53;;;41.08;;
15218;SDS011;15623;53.986;11.676;2022-09-09T06:03:35;63.50;;;41.95;;
15218;SDS011;15623;53.986;11.676;2022-09-09T06:06:03;60.83;;;41.17;;
15218;SDS011;15623;53.986;11.676;2022-09-09T06:08:31;66.28;;;42.97;;
15218;SDS011;15623;53.986;11.676;2022-09-09T06:11:02;68.75;;;44.50;;
15218;SDS011;15623;53.986;11.676;2022-09-09T06:13:29;60.28;;;40.45;;
15218;SDS011;15623;53.986;11.676;2022-09-09T06:15:57;63.65;;;41.72;;
15218;SDS011;15623;53.986;11.676;2022-09-09T06:18:27;74.50;;;43.35;;
15218;SDS011;15623;53.986;11.676;2022-09-09T06:20:55;66.03;;;40.90;;
15218;SDS011;15623;53.986;11.676;2022-09-09T06:23:22;79.75;;;45.28;;
15218;SDS011;15623;53.986;11.676;2022-09-09T06:25:50;74.03;;;45.20;;
15218;SDS011;15623;53.986;11.676;2022-09-09T06:28:17;65.53;;;42.13;;
15218;SDS011;15623;53.986;11.676;2022-09-09T06:30:45;62.75;;;41.55;;
15218;SDS011;15623;53.986;11.676;2022-09-09T06:33:12;60.85;;;41.13;;
15218;SDS011;15623;53.986;11.676;2022-09-09T06:35:41;63.42;;;41.60;;
15218;SDS011;15623;53.986;11.676;2022-09-09T06:38:10;61.33;;;40.00;;
15218;SDS011;15623;53.986;11.676;2022-09-09T06:40:37;54.30;;;38.78;;
15218;SDS011;15623;53.986;11.676;2022-09-09T06:43:04;56.28;;;37.75;;
15218;SDS011;15623;53.986;11.676;2022-09-09T06:45:32;53.53;;;36.03;;
15218;SDS011;15623;53.986;11.676;2022-09-09T06:48:01;52.38;;;35.60;;
15218;SDS011;15623;53.986;11.676;2022-09-09T06:50:29;47.35;;;34.53;;
15218;SDS011;15623;53.986;11.676;2022-09-09T06:52:58;41.20;;;31.08;;
15218;SDS011;15623;53.986;11.676;2022-09-09T06:55:27;44.13;;;33.50;;
15218;SDS011;15623;53.986;11.676;2022-09-09T06:57:54;36.00;;;30.27;;
15218;SDS011;15623;53.986;11.676;2022-09-09T07:00:21;38.20;;;29.55;;
15218;SDS011;15623;53.986;11.676;2022-09-09T07:02:50;35.28;;;27.70;;
15218;SDS011;15623;53.986;11.676;2022-09-09T07:05:18;32.60;;;26.90;;
15218;SDS011;15623;53.986;11.676;2022-09-09T07:07:46;33.22;;;23.58;;
15218;SDS011;15623;53.986;11.676;2022-09-09T07:10:14;23.63;;;21.23;;
15218;SDS011;15623;53.986;11.676;2022-09-09T07:12:42;24.50;;;22.00;;
15218;SDS011;15623;53.986;11.676;2022-09-09T07:15:10;26.52;;;21.60;;
15218;SDS011;15623;53.986;11.676;2022-09-09T07:17:38;29.52;;;23.85;;
15218;SDS011;15623;53.986;11.676;2022-09-09T07:20:06;28.73;;;23.45;;
15218;SDS011;15623;53.986;11.676;2022-09-09T07:22:33;27.48;;;23.60;;
15218;SDS011;15623;53.986;11.676;2022-09-09T07:25:00;27.13;;;24.30;;
15218;SDS011;15623;53.986;11.676;2022-09-09T07:27:29;27.08;;;24.05;;
15218;SDS011;15623;53.986;11.676;2022-09-09T07:29:56;25.83;;;22.98;;
15218;SDS011;15623;53.986;11.676;2022-09-09T07:32:24;25.35;;;21.95;;
15218;SDS011;15623;53.986;11.676;2022-09-09T07:34:52;27.80;;;23.42;;
15218;SDS011;15623;53.986;11.676;2022-09-09T07:37:19;27.23;;;24.13;;
15218;SDS011;15623;53.986;11.676;2022-09-09T07:39:47;27.70;;;24.90;;
15218;SDS011;15623;53.986;11.676;2022-09-09T07:42:16;25.60;;;22.80;;
15218;SDS011;15623;53.986;11.676;2022-09-09T07:44:45;28.88;;;25.25;;
15218;SDS011;15623;53.986;11.676;2022-09-09T07:47:13;30.05;;;26.83;;
15218;SDS011;15623;53.986;11.676;2022-09-09T07:49:40;28.42;;;25.38;;
15218;SDS011;15623;53.986;11.676;2022-09-09T07:52:07;29.77;;;26.80;;
15218;SDS011;15623;53.986;11.676;2022-09-09T07:54:35;25.65;;;23.05;;
15218;SDS011;15623;53.986;11.676;2022-09-09T07:57:03;30.02;;;25.10;;
15218;SDS011;15623;53.986;11.676;2022-09-09T07:59:30;24.38;;;22.02;;
15218;SDS011;15623;53.986;11.676;2022-09-09T08:02:00;23.30;;;20.92;;
15218;SDS011;15623;53.986;11.676;2022-09-09T08:04:27;20.73;;;18.70;;
15218;SDS011;15623;53.986;11.676;2022-09-09T08:06:55;19.60;;;17.90;;
15218;SDS011;15623;53.986;11.676;2022-09-09T08:09:23;20.90;;;18.88;;
15218;SDS011;15623;53.986;11.676;2022-09-09T08:11:52;22.63;;;20.42;;
15218;SDS011;15623;53.986;11.676;2022-09-09T08:14:21;22.63;;;20.52;;
15218;SDS011;15623;53.986;11.676;2022-09-09T08:16:49;21.92;;;19.85;;
15218;SDS011;15623;53.986;11.676;2022-09-09T08:19:19;19.95;;;18.13;;
15218;SDS011;15623;53.986;11.676;2022-09-09T08:21:46;20.40;;;18.13;;
15218;SDS011;15623;53.986;11.676;2022-09-09T08:24:14;17.30;;;15.80;;
15218;SDS011;15623;53.986;11.676;2022-09-09T08:26:42;17.50;;;16.00;;
15218;SDS011;15623;53.986;11.676;2022-09-09T08:29:10;15.95;;;14.70;;
15218;SDS011;15623;53.986;11.676;2022-09-09T08:31:39;16.13;;;14.88;;
15218;SDS011;15623;53.986;11.676;2022-09-09T08:34:07;15.65;;;14.25;;
15218;SDS011;15623;53.986;11.676;2022-09-09T08:36:38;13.63;;;12.57;;
15218;SDS011;15623;53.986;11.676;2022-09-09T08:39:07;12.38;;;11.57;;
15218;SDS011;15623;53.986;11.676;2022-09-09T08:44:31;10.45;;;9.65;;
15218;SDS011;15623;53.986;11.676;2022-09-09T08:47:01;10.38;;;9.68;;
15218;SDS011;15623;53.986;11.676;2022-09-09T08:49:54;10.55;;;9.85;;
15218;SDS011;15623;53.986;11.676;2022-09-09T08:52:29;9.68;;;8.93;;
15218;SDS011;15623;53.986;11.676;2022-09-09T08:54:58;9.93;;;9.32;;
15218;SDS011;15623;53.986;11.676;2022-09-09T08:57:30;9.80;;;9.20;;
15218;SDS011;15623;53.986;11.676;2022-09-09T09:00:10;10.02;;;9.23;;
15218;SDS011;15623;53.986;11.676;2022-09-09T09:02:57;10.70;;;9.90;;
15218;SDS011;15623;53.986;11.676;2022-09-09T09:05:37;9.68;;;9.02;;
15218;SDS011;15623;53.986;11.676;2022-09-09T09:08:15;10.15;;;9.45;;
15218;SDS011;15623;53.986;11.676;2022-09-09T09:10:54;10.57;;;9.88;;
15218;SDS011;15623;53.986;11.676;2022-09-09T09:13:24;10.25;;;9.32;;
15218;SDS011;15623;53.986;11.676;2022-09-09T09:15:55;10.63;;;9.85;;
15218;SDS011;15623;53.986;11.676;2022-09-09T09:18:42;10.15;;;9.52;;
15218;SDS011;15623;53.986;11.676;2022-09-09T09:21:15;9.48;;;8.88;;
15218;SDS011;15623;53.986;11.676;2022-09-09T09:26:31;8.57;;;7.90;;
15218;SDS011;15623;53.986;11.676;2022-09-09T09:32:08;8.35;;;7.75;;
15218;SDS011;15623;53.986;11.676;2022-09-09T09:46:20;8.23;;;7.68;;
15218;SDS011;15623;53.986;11.676;2022-09-09T09:57:31;7.18;;;6.68;;
15218;SDS011;15623;53.986;11.676;2022-09-09T10:00:02;6.43;;;5.93;;
15218;SDS011;15623;53.986;11.676;2022-09-09T10:02:46;6.20;;;5.70;;
15218;SDS011;15623;53.986;11.676;2022-09-09T10:08:33;5.93;;;5.53;;
15218;SDS011;15623;53.986;11.676;2022-09-09T10:21:25;4.35;;;4.10;;
15218;SDS011;15623;53.986;11.676;2022-09-09T10:23:58;4.70;;;4.32;;
15218;SDS011;15623;53.986;11.676;2022-09-09T10:26:32;4.82;;;4.53;;
15218;SDS011;15623;53.986;11.676;2022-09-09T10:29:18;4.70;;;4.40;;
15218;SDS011;15623;53.986;11.676;2022-09-09T10:31:53;4.22;;;3.92;;
15218;SDS011;15623;53.986;11.676;2022-09-09T10:34:31;5.15;;;4.75;;
15218;SDS011;15623;53.986;11.676;2022-09-09T10:37:11;5.30;;;5.00;;
15218;SDS011;15623;53.986;11.676;2022-09-09T10:39:49;5.03;;;4.72;;
15218;SDS011;15623;53.986;11.676;2022-09-09T10:42:24;6.25;;;5.85;;
15218;SDS011;15623;53.986;11.676;2022-09-09T10:48:35;4.60;;;4.30;;
15218;SDS011;15623;53.986;11.676;2022-09-09T10:51:21;5.00;;;4.70;;
15218;SDS011;15623;53.986;11.676;2022-09-09T10:56:21;5.10;;;4.70;;
15218;SDS011;15623;53.986;11.676;2022-09-09T10:59:04;5.20;;;4.80;;
15218;SDS011;15623;53.986;11.676;2022-09-09T11:07:08;4.70;;;4.40;;
15218;SDS011;15623;53.986;11.676;2022-09-09T11:09:41;5.00;;;4.60;;
15218;SDS011;15623;53.986;11.676;2022-09-09T11:15:44;5.25;;;4.68;;
15218;SDS011;15623;53.986;11.676;2022-09-09T11:18:13;6.30;;;4.95;;
15218;SDS011;15623;53.986;11.676;2022-09-09T11:21:00;4.80;;;4.32;;
15218;SDS011;15623;53.986;11.676;2022-09-09T11:23:43;5.82;;;4.75;;
15218;SDS011;15623;53.986;11.676;2022-09-09T11:26:15;4.35;;;3.92;;
15218;SDS011;15623;53.986;11.676;2022-09-09T11:28:49;4.55;;;4.15;;
15218;SDS011;15623;53.986;11.676;2022-09-09T11:31:56;5.40;;;4.57;;
15218;SDS011;15623;53.986;11.676;2022-09-09T11:34:43;5.05;;;4.05;;
15218;SDS011;15623;53.986;11.676;2022-09-09T11:37:37;4.20;;;3.72;;
15218;SDS011;15623;53.986;11.676;2022-09-09T11:40:22;6.45;;;3.65;;
15218;SDS011;15623;53.986;11.676;2022-09-09T11:43:00;3.97;;;3.50;;
15218;SDS011;15623;53.986;11.676;2022-09-09T11:45:30;4.85;;;4.03;;
15218;SDS011;15623;53.986;11.676;2022-09-09T11:48:00;4.03;;;3.72;;
15218;SDS011;15623;53.986;11.676;2022-09-09T11:50:45;3.67;;;3.30;;
15218;SDS011;15623;53.986;11.676;2022-09-09T11:53:21;3.47;;;3.10;;
15218;SDS011;15623;53.986;11.676;2022-09-09T11:56:06;4.32;;;3.10;;
15218;SDS011;15623;53.986;11.676;2022-09-09T11:58:43;3.15;;;2.83;;
15218;SDS011;15623;53.986;11.676;2022-09-09T12:01:26;3.90;;;3.60;;
15218;SDS011;15623;53.986;11.676;2022-09-09T12:03:59;3.80;;;3.50;;
15218;SDS011;15623;53.986;11.676;2022-09-09T12:06:30;3.90;;;3.60;;
15218;SDS011;15623;53.986;11.676;2022-09-09T12:09:12;3.92;;;3.60;;
15218;SDS011;15623;53.986;11.676;2022-09-09T12:12:05;3.60;;;3.30;;
15218;SDS011;15623;53.986;11.676;2022-09-09T12:14:36;5.40;;;3.88;;
15218;SDS011;15623;53.986;11.676;2022-09-09T12:20:02;2.63;;;1.88;;
15218;SDS011;15623;53.986;11.676;2022-09-09T12:22:37;2.22;;;1.92;;
15218;SDS011;15623;53.986;11.676;2022-09-09T12:25:12;2.30;;;2.10;;
15218;SDS011;15623;53.986;11.676;2022-09-09T12:27:44;2.15;;;1.95;;
15218;SDS011;15623;53.986;11.676;2022-09-09T12:30:14;2.33;;;2.13;;
15218;SDS011;15623;53.986;11.676;2022-09-09T12:32:42;2.70;;;2.20;;
15218;SDS011;15623;53.986;11.676;2022-09-09T12:35:30;2.42;;;2.17;;
15218;SDS011;15623;53.986;11.676;2022-09-09T12:43:41;2.38;;;2.15;;
15218;SDS011;15623;53.986;11.676;2022-09-09T12:46:44;2.60;;;1.90;;
15218;SDS011;15623;53.986;11.676;2022-09-09T12:49:46;2.17;;;1.80;;
15218;SDS011;15623;53.986;11.676;2022-09-09T12:52:27;1.50;;;1.40;;
15218;SDS011;15623;53.986;11.676;2022-09-09T12:55:07;1.80;;;1.60;;
15218;SDS011;15623;53.986;11.676;2022-09-09T12:58:04;2.03;;;1.83;;
15218;SDS011;15623;53.986;11.676;2022-09-09T13:00:34;2.25;;;1.80;;
15218;SDS011;15623;53.986;11.676;2022-09-09T13:03:30;2.25;;;1.65;;
15218;SDS011;15623;53.986;11.676;2022-09-09T13:06:13;2.75;;;1.80;;
15218;SDS011;15623;53.986;11.676;2022-09-09T13:14:45;2.17;;;1.48;;
15218;SDS011;15623;53.986;11.676;2022-09-09T13:17:17;4.03;;;1.80;;
15218;SDS011;15623;53.986;11.676;2022-09-09T13:19:46;2.70;;;1.50;;
15218;SDS011;15623;53.986;11.676;2022-09-09T13:22:20;2.65;;;1.35;;
15218;SDS011;15623;53.986;11.676;2022-09-09T13:25:03;1.20;;;1.10;;
15218;SDS011;15623;53.986;11.676;2022-09-09T13:27:32;2.85;;;1.45;;
15218;SDS011;15623;53.986;11.676;2022-09-09T13:35:48;1.35;;;1.25;;
15218;SDS011;15623;53.986;11.676;2022-09-09T13:38:20;1.60;;;1.38;;
15218;SDS011;15623;53.986;11.676;2022-09-09T13:40:59;1.25;;;1.15;;
15218;SDS011;15623;53.986;11.676;2022-09-09T13:43:48;2.95;;;1.77;;
15218;SDS011;15623;53.986;11.676;2022-09-09T13:46:33;2.33;;;1.50;;
15218;SDS011;15623;53.986;11.676;2022-09-09T13:55:00;1.08;;;0.98;;
15218;SDS011;15623;53.986;11.676;2022-09-09T13:57:27;1.77;;;1.20;;
15218;SDS011;15623;53.986;11.676;2022-09-09T14:02:54;2.25;;;1.25;;
15218;SDS011;15623;53.986;11.676;2022-09-09T14:05:30;1.98;;;1.05;;
15218;SDS011;15623;53.986;11.676;2022-09-09T14:10:36;2.70;;;1.40;;
15218;SDS011;15623;53.986;11.676;2022-09-09T14:13:04;2.25;;;1.20;;
15218;SDS011;15623;53.986;11.676;2022-09-09T14:15:33;2.20;;;1.33;;
15218;SDS011;15623;53.986;11.676;2022-09-09T14:18:08;1.20;;;1.10;;
15218;SDS011;15623;53.986;11.676;2022-09-09T14:20:44;1.65;;;1.00;;
15218;SDS011;15623;53.986;11.676;2022-09-09T14:23:15;1.52;;;1.30;;
15218;SDS011;15623;53.986;11.676;2022-09-09T14:25:45;1.58;;;1.42;;
15218;SDS011;15623;53.986;11.676;2022-09-09T14:28:16;1.23;;;1.13;;
15218;SDS011;15623;53.986;11.676;2022-09-09T14:30:48;1.80;;;1.42;;
15218;SDS011;15623;53.986;11.676;2022-09-09T14:33:20;1.77;;;1.48;;
15218;SDS011;15623;53.986;11.676;2022-09-09T14:35:55;1.65;;;1.23;;
15218;SDS011;15623;53.986;11.676;2022-09-09T14:38:22;2.45;;;1.38;;
15218;SDS011;15623;53.986;11.676;2022-09-09T14:43:41;4.82;;;1.60;;
15218;SDS011;15623;53.986;11.676;2022-09-09T14:46:17;2.70;;;1.60;;
15218;SDS011;15623;53.986;11.676;2022-09-09T14:48:51;2.15;;;1.63;;
15218;SDS011;15623;53.986;11.676;2022-09-09T14:51:23;3.80;;;1.60;;
15218;SDS011;15623;53.986;11.676;2022-09-09T14:54:08;2.25;;;1.52;;
15218;SDS011;15623;53.986;11.676;2022-09-09T15:05:52;2.92;;;2.58;;
15218;SDS011;15623;53.986;11.676;2022-09-09T15:08:20;3.17;;;2.88;;
15218;SDS011;15623;53.986;11.676;2022-09-09T15:10:59;3.85;;;2.75;;
15218;SDS011;15623;53.986;11.676;2022-09-09T15:13:41;2.92;;;2.67;;
15218;SDS011;15623;53.986;11.676;2022-09-09T15:16:10;3.47;;;2.78;;
15218;SDS011;15623;53.986;11.676;2022-09-09T15:18:39;2.72;;;2.25;;
15218;SDS011;15623;53.986;11.676;2022-09-09T15:21:19;3.85;;;2.53;;
15218;SDS011;15623;53.986;11.676;2022-09-09T15:23:53;4.70;;;2.65;;
15218;SDS011;15623;53.986;11.676;2022-09-09T16:58:28;1.55;;;0.68;;
15218;SDS011;15623;53.986;11.676;2022-09-09T17:01:17;2.28;;;1.10;;
15218;SDS011;15623;53.986;11.676;2022-09-09T17:29:30;1.58;;;1.48;;
15218;SDS011;15623;53.986;11.676;2022-09-09T17:32:21;2.60;;;1.50;;
15218;SDS011;15623;53.986;11.676;2022-09-09T17:34:53;1.27;;;1.17;;
15218;SDS011;15623;53.986;11.676;2022-09-09T17:39:57;2.60;;;1.77;;
15218;SDS011;15623;53.986;11.676;2022-09-09T17:42:25;1.40;;;1.30;;
15218;SDS011;15623;53.986;11.676;2022-09-09T17:50:35;1.88;;;1.67;;
15218;SDS011;15623;53.986;11.676;2022-09-09T17:53:03;2.30;;;1.67;;
15218;SDS011;15623;53.986;11.676;2022-09-09T17:55:32;1.58;;;1.30;;
15218;SDS011;15623;53.986;11.676;2022-09-09T17:58:04;1.70;;;1.60;;
15218;SDS011;15623;53.986;11.676;2022-09-09T18:00:36;1.90;;;1.80;;
15218;SDS011;15623;53.986;11.676;2022-09-09T18:25:52;2.85;;;2.70;;
15218;SDS011;15623;53.986;11.676;2022-09-09T18:28:25;2.92;;;2.80;;
15218;SDS011;15623;53.986;11.676;2022-09-09T18:31:03;2.95;;;2.75;;
15218;SDS011;15623;53.986;11.676;2022-09-09T18:33:33;3.22;;;3.03;;
15218;SDS011;15623;53.986;11.676;2022-09-09T18:36:06;3.28;;;3.00;;
15218;SDS011;15623;53.986;11.676;2022-09-09T18:44:38;4.85;;;3.30;;
15218;SDS011;15623;53.986;11.676;2022-09-09T18:47:24;3.88;;;2.95;;
15218;SDS011;15623;53.986;11.676;2022-09-09T18:50:16;3.47;;;2.95;;
15218;SDS011;15623;53.986;11.676;2022-09-09T18:53:15;5.63;;;3.30;;
15218;SDS011;15623;53.986;11.676;2022-09-09T18:56:05;3.40;;;3.15;;
15218;SDS011;15623;53.986;11.676;2022-09-09T18:58:58;3.63;;;3.33;;
15218;SDS011;15623;53.986;11.676;2022-09-09T19:01:58;4.15;;;3.88;;
15218;SDS011;15623;53.986;11.676;2022-09-09T19:04:29;3.88;;;3.58;;
15218;SDS011;15623;53.986;11.676;2022-09-09T19:07:19;4.38;;;3.97;;